SBRJ/SDU METAR and TAF weather

Enter ICAO airport designator
Station Type Date Time Source
SBRJ METAR 2019/10/14 06:00 UTC NOAA

SBRJ 140600Z 33007KT CAVOK 24/23 Q1010


Station Type Date Time Source
SBRJ Decoded METAR 2019/10/14 06:00 UTC NOAA

Rio De Janeiro Aeroporto , Brazil (SBRJ) 22-54S 043-10W
Oct 14, 2019 - 02:00 AM EDT / 2019.10.14 0600 UTC
Wind: from the NNW (330 degrees) at 8 MPH (7 KT):0
Visibility: greater than 7 mile(s):0
Temperature: 75 F (24 C)
Dew Point: 73 F (23 C)
Relative Humidity: 94%
Pressure (altimeter): 29.83 in. Hg (1010 hPa)
ob: SBRJ 140600Z 33007KT CAVOK 24/23 Q1010
cycle: 6

Station Type Date Time Source
SBRJ TAF 2019/10/14 06:33 UTC NOAA

TAF SBRJ 140314Z 1406/1418 34005KT CAVOK TN24/1409Z TX33/1418Z
BECMG 1414/1417 18015KT
RMK PHQ

Example: see airport list